createdAt,value
2023-01-01T00:01:29.991Z,53.77
2023-01-01T00:04:01.594Z,52.88
2023-01-01T00:06:31.679Z,53.54
2023-01-01T00:09:19.572Z,54.12
2023-01-01T00:11:49.345Z,52.39
2023-01-01T00:14:19.062Z,53.12
2023-01-01T00:16:48.943Z,53.09
2023-01-01T00:19:18.501Z,53.09
2023-01-01T00:21:47.999Z,53.39
2023-01-01T00:24:17.723Z,52.90
2023-01-01T00:26:47.483Z,52.74
2023-01-01T00:29:17.232Z,52.95
2023-01-01T00:31:46.878Z,53.17
2023-01-01T00:34:16.836Z,53.01
2023-01-01T00:36:46.360Z,53.13
2023-01-01T00:39:16.173Z,52.56
2023-01-01T00:41:45.907Z,53.85
2023-01-01T00:44:15.809Z,53.77
2023-01-01T00:46:45.643Z,54.56
2023-01-01T00:49:15.557Z,54.04
2023-01-01T00:51:45.347Z,54.04
2023-01-01T00:54:15.055Z,53.98
2023-01-01T00:56:44.830Z,53.52
2023-01-01T00:59:14.291Z,53.96
2023-01-01T01:01:44.201Z,53.46
2023-01-01T01:04:14.227Z,52.94
2023-01-01T01:06:44.058Z,52.42
2023-01-01T01:09:13.791Z,52.90
2023-01-01T01:11:43.562Z,52.73
2023-01-01T01:14:14.827Z,52.74
2023-01-01T01:16:44.625Z,53.02
2023-01-01T01:19:15.764Z,53.19
2023-01-01T01:21:47.141Z,53.14
2023-01-01T01:24:16.908Z,53.15
2023-01-01T01:26:46.754Z,52.48
2023-01-01T01:29:16.773Z,53.07
2023-01-01T01:31:46.658Z,53.07
2023-01-01T01:34:21.181Z,52.07
2023-01-01T01:36:49.666Z,52.48
2023-01-01T01:39:19.917Z,52.89
2023-01-01T01:41:49.691Z,53.33
2023-01-01T01:44:55.240Z,53.33
2023-01-01T01:47:49.280Z,52.67
2023-01-01T01:50:30.313Z,53.03
2023-01-01T01:53:24.555Z,52.87
2023-01-01T01:56:00.238Z,53.52
2023-01-01T01:58:31.940Z,53.52
2023-01-01T02:01:02.278Z,53.59
2023-01-01T02:03:54.493Z,52.81
2023-01-01T02:06:24.524Z,52.56
2023-01-01T02:08:54.943Z,53.16
2023-01-01T02:11:25.515Z,52.44
2023-01-01T02:13:56.861Z,53.11
2023-01-01T02:16:50.050Z,53.98
2023-01-01T02:19:25.547Z,53.12
2023-01-01T02:22:09.427Z,52.63
2023-01-01T02:24:59.710Z,52.66
2023-01-01T02:27:56.781Z,52.45
2023-01-01T02:30:29.280Z,52.59
2023-01-01T02:33:05.211Z,52.77
2023-01-01T02:35:43.039Z,52.88
2023-01-01T02:38:21.704Z,52.88
2023-01-01T02:40:54.405Z,53.04
2023-01-01T02:43:25.136Z,52.34
2023-01-01T02:45:55.614Z,52.60
2023-01-01T02:48:49.379Z,52.54
2023-01-01T02:51:38.332Z,52.33
2023-01-01T02:54:21.110Z,51.74
2023-01-01T02:57:02.796Z,51.50
2023-01-01T02:59:52.774Z,51.66
2023-01-01T03:02:28.223Z,51.75
2023-01-01T03:05:06.380Z,51.98
2023-01-01T03:07:48.035Z,52.10
2023-01-01T03:10:20.827Z,52.27
2023-01-01T03:12:59.486Z,52.29
2023-01-01T03:15:41.075Z,51.73
2023-01-01T03:18:29.384Z,51.49
2023-01-01T03:21:01.884Z,52.20
2023-01-01T03:23:35.993Z,52.51
2023-01-01T03:26:09.815Z,52.88
2023-01-01T03:28:51.260Z,52.22
2023-01-01T03:31:24.302Z,52.00
2023-01-01T03:34:06.172Z,52.17
2023-01-01T03:36:41.388Z,52.17
2023-01-01T03:39:16.827Z,52.50
2023-01-01T03:41:52.569Z,53.04
2023-01-01T03:44:57.256Z,53.10
2023-01-01T03:47:27.159Z,52.76
2023-01-01T03:49:58.709Z,52.89
2023-01-01T03:52:33.943Z,53.75
2023-01-01T03:55:15.184Z,53.19
2023-01-01T03:57:59.897Z,53.50
2023-01-01T04:00:37.287Z,53.44
2023-01-01T04:03:18.932Z,53.55
2023-01-01T04:05:48.591Z,53.51
2023-01-01T04:08:18.641Z,53.81
2023-01-01T04:10:54.121Z,54.01
2023-01-01T04:13:23.697Z,53.92
2023-01-01T04:15:53.245Z,53.92
2023-01-01T04:18:23.000Z,54.83
2023-01-01T04:20:52.783Z,54.66
2023-01-01T04:23:22.531Z,55.04
2023-01-01T04:25:52.310Z,54.88
2023-01-01T04:28:22.062Z,54.41
2023-01-01T04:33:23.826Z,55.08
2023-01-01T04:35:53.391Z,55.08
2023-01-01T04:38:22.830Z,55.08
2023-01-01T04:41:02.683Z,55.30
2023-01-01T04:43:33.170Z,54.89
2023-01-01T04:46:04.866Z,54.70
2023-01-01T04:48:36.623Z,55.54
2023-01-01T04:51:07.456Z,55.34
2023-01-01T04:53:37.215Z,55.36
2023-01-01T04:56:17.877Z,55.23
2023-01-01T04:58:48.005Z,55.18
2023-01-01T05:01:26.674Z,55.81
2023-01-01T05:03:57.544Z,55.58
2023-01-01T05:06:27.646Z,56.08
2023-01-01T05:08:59.504Z,55.71
2023-01-01T05:11:31.028Z,55.83
2023-01-01T05:14:02.567Z,55.87
2023-01-01T05:16:34.977Z,56.34
2023-01-01T05:19:05.712Z,56.45
2023-01-01T05:21:38.335Z,56.61
2023-01-01T05:24:11.224Z,56.61
2023-01-01T05:26:44.253Z,58.14
2023-01-01T05:29:16.997Z,58.66
2023-01-01T05:31:47.124Z,58.65
2023-01-01T05:34:16.725Z,58.72
2023-01-01T05:36:46.547Z,58.73
2023-01-01T05:39:16.312Z,58.75
2023-01-01T05:41:46.129Z,58.87
2023-01-01T05:44:17.163Z,58.80
2023-01-01T05:46:46.979Z,59.62
2023-01-01T05:49:16.746Z,60.54
2023-01-01T05:51:46.273Z,61.25
2023-01-01T05:56:44.898Z,61.10
2023-01-01T05:59:14.690Z,61.09
2023-01-01T06:01:46.084Z,61.68
2023-01-01T06:04:16.063Z,61.47
2023-01-01T06:06:45.799Z,61.69
2023-01-01T06:09:15.498Z,61.57
2023-01-01T06:11:45.295Z,62.28
2023-01-01T06:14:14.698Z,62.01
2023-01-01T06:16:44.797Z,62.25
2023-01-01T06:19:14.557Z,62.79
2023-01-01T06:21:44.317Z,62.79
2023-01-01T06:24:14.042Z,62.68
2023-01-01T06:26:43.848Z,62.68
2023-01-01T06:29:13.644Z,62.17
2023-01-01T06:31:43.723Z,57.60
2023-01-01T06:34:14.837Z,55.97
2023-01-01T06:36:44.672Z,55.97
2023-01-01T06:39:14.512Z,56.67
2023-01-01T06:41:44.328Z,57.18
2023-01-01T06:44:14.049Z,58.61
2023-01-01T06:46:43.930Z,60.10
2023-01-01T06:49:13.879Z,61.63
2023-01-01T06:51:45.054Z,62.31
2023-01-01T06:54:14.756Z,62.73
2023-01-01T06:56:44.827Z,63.82
2023-01-01T06:59:18.806Z,64.67
2023-01-01T07:01:48.718Z,64.52
2023-01-01T07:04:18.438Z,64.23
2023-01-01T07:06:48.468Z,64.52
2023-01-01T07:09:18.191Z,64.52
2023-01-01T07:11:47.946Z,64.74
2023-01-01T07:14:17.676Z,64.74
2023-01-01T07:16:47.100Z,64.45
2023-01-01T07:19:16.839Z,64.90
2023-01-01T07:21:49.339Z,65.25
2023-01-01T07:24:19.709Z,65.06
2023-01-01T07:26:49.275Z,65.51
2023-01-01T07:29:19.063Z,65.66
2023-01-01T07:31:49.170Z,65.58
2023-01-01T07:34:23.868Z,66.89
2023-01-01T07:36:53.642Z,67.66
2023-01-01T07:39:23.402Z,67.35
2023-01-01T07:41:53.137Z,68.08
2023-01-01T07:44:22.960Z,68.68
2023-01-01T07:46:54.192Z,69.26
2023-01-01T07:49:23.964Z,69.26
2023-01-01T07:51:53.692Z,69.83
2023-01-01T07:54:23.201Z,69.91
2023-01-01T07:56:52.962Z,69.87
2023-01-01T07:59:22.528Z,70.39
2023-01-01T08:01:52.446Z,71.22
2023-01-01T08:04:22.325Z,70.60
2023-01-01T08:06:52.080Z,71.10
2023-01-01T08:09:22.005Z,71.10
2023-01-01T08:11:53.148Z,70.33
2023-01-01T08:14:22.981Z,70.92
2023-01-01T08:16:52.933Z,71.04
2023-01-01T08:19:22.770Z,71.35
2023-01-01T08:21:52.546Z,71.25
2023-01-01T08:24:21.988Z,71.88
2023-01-01T08:26:52.045Z,72.08
2023-01-01T08:29:22.466Z,72.94
2023-01-01T08:31:52.227Z,72.69
2023-01-01T08:34:21.961Z,72.97
2023-01-01T08:36:52.060Z,73.93
2023-01-01T08:39:21.862Z,73.49
2023-01-01T08:41:51.906Z,72.89
2023-01-01T08:44:22.087Z,72.69
2023-01-01T08:46:55.864Z,73.22
2023-01-01T08:49:25.717Z,74.06
2023-01-01T08:51:55.462Z,74.55
2023-01-01T08:54:25.228Z,75.07
2023-01-01T08:56:54.944Z,76.31
2023-01-01T08:59:25.326Z,76.31
2023-01-01T09:01:55.282Z,76.62
2023-01-01T09:04:25.194Z,76.31
2023-01-01T09:06:55.093Z,76.88
2023-01-01T09:09:31.104Z,76.10
2023-01-01T09:12:00.110Z,76.39
2023-01-01T09:14:29.849Z,76.13
2023-01-01T09:16:59.456Z,75.29
2023-01-01T09:19:29.656Z,74.97
2023-01-01T09:21:59.557Z,75.13
2023-01-01T09:24:29.340Z,75.12
2023-01-01T09:26:59.168Z,74.83
2023-01-01T09:29:28.943Z,75.30
2023-01-01T09:31:58.767Z,75.08
2023-01-01T09:34:28.771Z,74.48
2023-01-01T09:36:58.536Z,75.58
2023-01-01T09:39:27.963Z,74.56
2023-01-01T09:42:06.537Z,75.01
2023-01-01T09:45:13.566Z,75.92
2023-01-01T09:47:49.944Z,76.63
2023-01-01T09:50:25.468Z,78.43
2023-01-01T09:53:01.205Z,77.60
2023-01-01T09:55:51.671Z,78.50
2023-01-01T09:58:24.534Z,80.11
2023-01-01T10:00:57.241Z,83.92
2023-01-01T10:03:30.400Z,83.92
2023-01-01T10:06:08.799Z,84.31
2023-01-01T10:08:44.486Z,84.08
2023-01-01T10:11:26.366Z,83.50
2023-01-01T10:13:58.892Z,82.96
2023-01-01T10:16:49.706Z,84.41
2023-01-01T10:19:46.846Z,86.97
2023-01-01T10:22:25.656Z,87.69
2023-01-01T10:25:01.056Z,87.87
2023-01-01T10:27:42.663Z,88.26
2023-01-01T10:30:19.856Z,88.63
2023-01-01T10:32:51.821Z,87.27
2023-01-01T10:35:30.262Z,86.98
2023-01-01T10:37:57.000Z,87.59
2023-01-01T10:40:28.790Z,85.76
2023-01-01T10:43:00.558Z,85.75
2023-01-01T10:45:41.770Z,86.03
2023-01-01T10:48:14.553Z,84.65
2023-01-01T10:50:47.385Z,84.43
2023-01-01T10:53:33.729Z,83.53
2023-01-01T10:56:15.270Z,83.67
2023-01-01T10:58:47.887Z,83.38
2023-01-01T11:01:23.622Z,83.38
2023-01-01T11:04:11.145Z,84.24
2023-01-01T11:06:45.588Z,85.62
2023-01-01T11:09:23.874Z,85.65
2023-01-01T11:12:11.828Z,84.45
2023-01-01T11:14:53.180Z,84.04
2023-01-01T11:17:28.434Z,84.28
2023-01-01T11:20:02.396Z,84.48
2023-01-01T11:22:50.363Z,84.52
2023-01-01T11:25:33.166Z,83.42
2023-01-01T11:28:22.539Z,83.23
2023-01-01T11:31:13.246Z,82.71
2023-01-01T11:33:57.435Z,82.81
2023-01-01T11:36:35.341Z,83.71
2023-01-01T11:39:25.959Z,83.90
2023-01-01T11:41:58.234Z,83.46
2023-01-01T11:44:39.846Z,84.39
2023-01-01T11:47:21.240Z,83.16
2023-01-01T11:52:41.162Z,83.18
2023-01-01T11:55:19.779Z,83.06
2023-01-01T11:58:17.499Z,82.38
2023-01-01T12:00:43.304Z,82.83
2023-01-01T12:03:33.129Z,83.26
2023-01-01T12:06:23.202Z,82.79
2023-01-01T12:09:04.629Z,81.62
2023-01-01T12:11:43.309Z,81.25
2023-01-01T12:14:32.543Z,80.94
2023-01-01T12:17:19.902Z,80.28
2023-01-01T12:19:56.099Z,80.67
2023-01-01T12:22:27.655Z,79.72
2023-01-01T12:24:58.936Z,80.07
2023-01-01T12:27:37.513Z,79.87
2023-01-01T12:30:22.742Z,79.91
2023-01-01T12:33:13.790Z,79.12
2023-01-01T12:36:04.810Z,78.26
2023-01-01T12:38:59.602Z,75.92
2023-01-01T12:41:38.383Z,74.66
2023-01-01T12:44:32.948Z,74.34
2023-01-01T12:47:29.705Z,73.56
2023-01-01T12:50:29.208Z,72.11
2023-01-01T12:53:14.724Z,72.89
2023-01-01T12:56:06.849Z,71.24
2023-01-01T12:58:39.660Z,71.34
2023-01-01T13:01:12.513Z,72.01
2023-01-01T13:03:45.363Z,71.73
2023-01-01T13:06:17.757Z,71.09
2023-01-01T13:08:50.889Z,70.67
2023-01-01T13:11:20.649Z,70.17
2023-01-01T13:13:50.566Z,70.87
2023-01-01T13:16:41.616Z,71.52
2023-01-01T13:19:29.464Z,71.02
2023-01-01T13:22:00.146Z,71.02
2023-01-01T13:24:30.046Z,70.61
2023-01-01T13:26:59.934Z,71.15
2023-01-01T13:29:34.398Z,70.92
2023-01-01T13:32:06.931Z,70.65
2023-01-01T13:34:46.143Z,70.24
2023-01-01T13:37:26.736Z,70.23
2023-01-01T13:40:01.689Z,70.23
2023-01-01T13:42:50.536Z,70.11
2023-01-01T13:48:09.191Z,69.72
2023-01-01T13:50:50.594Z,69.67
2023-01-01T13:53:38.348Z,69.57
2023-01-01T13:56:15.247Z,69.61
2023-01-01T13:58:59.379Z,69.71
2023-01-01T14:01:54.721Z,69.32
2023-01-01T14:04:33.131Z,69.58
2023-01-01T14:07:25.117Z,69.41
2023-01-01T14:09:39.043Z,69.98
2023-01-01T14:12:20.581Z,68.93
2023-01-01T14:14:50.347Z,69.28
2023-01-01T14:17:21.749Z,69.09
2023-01-01T14:19:51.773Z,69.11
2023-01-01T14:22:22.302Z,69.64
2023-01-01T14:24:54.273Z,69.30
2023-01-01T14:27:24.935Z,70.02
2023-01-01T14:29:55.810Z,70.49
2023-01-01T14:32:28.206Z,70.00
2023-01-01T14:35:02.456Z,70.00
2023-01-01T14:37:32.254Z,69.58
2023-01-01T14:40:10.782Z,69.37
2023-01-01T14:42:41.992Z,69.88
2023-01-01T14:45:19.648Z,69.67
2023-01-01T14:47:55.524Z,69.64
2023-01-01T14:50:28.636Z,69.69
2023-01-01T14:53:04.262Z,69.65
2023-01-01T14:55:45.809Z,69.91
2023-01-01T14:58:21.434Z,69.70
2023-01-01T15:00:54.699Z,69.92
2023-01-01T15:03:26.336Z,69.85
2023-01-01T15:06:01.481Z,69.71
2023-01-01T15:08:31.577Z,70.28
2023-01-01T15:11:04.515Z,70.15
2023-01-01T15:13:34.284Z,70.03
2023-01-01T15:16:20.353Z,70.29
2023-01-01T15:18:53.080Z,70.29
2023-01-01T15:21:41.320Z,69.75
2023-01-01T15:24:19.502Z,70.13
2023-01-01T15:26:55.232Z,70.28
2023-01-01T15:29:36.259Z,70.28
2023-01-01T15:32:11.161Z,69.82
2023-01-01T15:34:52.467Z,70.21
2023-01-01T15:37:52.078Z,70.21
2023-01-01T15:40:25.189Z,70.27
2023-01-01T15:43:04.115Z,70.27
2023-01-01T15:45:36.750Z,70.45
2023-01-01T15:48:13.574Z,70.40
2023-01-01T15:50:52.692Z,70.42
2023-01-01T15:53:25.718Z,70.24
2023-01-01T15:56:07.263Z,70.12
2023-01-01T15:58:40.080Z,70.42
2023-01-01T16:01:16.052Z,70.50
2023-01-01T16:03:47.691Z,70.57
2023-01-01T16:06:22.368Z,71.45
2023-01-01T16:08:52.110Z,71.96
2023-01-01T16:11:21.964Z,71.75
2023-01-01T16:13:51.765Z,71.79
2023-01-01T16:16:30.023Z,72.31
2023-01-01T16:19:00.415Z,71.76
2023-01-01T16:21:32.867Z,72.10
2023-01-01T16:24:02.757Z,71.91
2023-01-01T16:26:32.512Z,71.99
2023-01-01T16:29:02.290Z,72.49
2023-01-01T16:31:32.085Z,72.55
2023-01-01T16:34:02.916Z,72.73
2023-01-01T16:36:33.529Z,72.85
2023-01-01T16:39:03.241Z,72.61
2023-01-01T16:41:33.077Z,73.19
2023-01-01T16:44:02.874Z,72.96
2023-01-01T16:46:33.521Z,73.05
2023-01-01T16:49:04.519Z,73.39
2023-01-01T16:51:35.217Z,73.28
2023-01-01T16:54:05.094Z,73.29
2023-01-01T16:56:34.927Z,73.75
2023-01-01T16:59:04.975Z,73.91
2023-01-01T17:01:35.370Z,74.31
2023-01-01T17:04:07.641Z,74.41
2023-01-01T17:06:39.880Z,75.36
2023-01-01T17:09:09.620Z,75.36
2023-01-01T17:11:39.948Z,75.53
2023-01-01T17:14:12.641Z,76.35
2023-01-01T17:16:42.515Z,76.57
2023-01-01T17:19:16.258Z,76.87
2023-01-01T17:21:46.534Z,78.04
2023-01-01T17:24:19.024Z,78.14
2023-01-01T17:26:54.561Z,78.60
2023-01-01T17:29:25.283Z,79.27
2023-01-01T17:31:55.239Z,79.16
2023-01-01T17:34:25.371Z,79.08
2023-01-01T17:36:55.107Z,79.80
2023-01-01T17:39:24.837Z,79.03
2023-01-01T17:41:56.521Z,79.11
2023-01-01T17:44:26.054Z,79.96
2023-01-01T17:46:55.923Z,79.49
2023-01-01T17:49:25.718Z,79.80
2023-01-01T17:51:55.497Z,80.04
2023-01-01T17:54:25.325Z,80.70
2023-01-01T17:56:57.192Z,81.79
2023-01-01T17:59:26.948Z,82.33
2023-01-01T18:01:57.525Z,82.90
2023-01-01T18:04:27.310Z,83.82
2023-01-01T18:07:02.442Z,83.68
2023-01-01T18:09:29.062Z,84.30
2023-01-01T18:11:58.980Z,84.89
2023-01-01T18:14:28.742Z,84.81
2023-01-01T18:16:58.501Z,85.02
2023-01-01T18:19:28.480Z,84.48
2023-01-01T18:21:58.223Z,85.91
2023-01-01T18:24:27.647Z,86.56
2023-01-01T18:26:57.152Z,86.56
2023-01-01T18:29:26.890Z,87.43
2023-01-01T18:31:56.661Z,87.67
2023-01-01T18:34:26.728Z,87.15
2023-01-01T18:36:57.083Z,87.31
2023-01-01T18:39:34.854Z,88.44
2023-01-01T18:42:34.373Z,89.37
2023-01-01T18:45:02.699Z,89.61
2023-01-01T18:47:32.832Z,88.42
2023-01-01T18:50:27.640Z,89.41
2023-01-01T18:53:12.173Z,89.24
2023-01-01T18:55:41.972Z,89.18
2023-01-01T18:58:24.727Z,89.68
2023-01-01T19:00:55.332Z,89.87
2023-01-01T19:03:37.514Z,90.01
2023-01-01T19:06:05.247Z,90.01
2023-01-01T19:08:35.420Z,91.60
2023-01-01T19:11:07.869Z,92.43
2023-01-01T19:13:42.856Z,91.36
2023-01-01T19:16:23.946Z,91.56
2023-01-01T19:18:51.671Z,91.78
2023-01-01T19:21:24.477Z,91.78
2023-01-01T19:23:59.360Z,91.20
2023-01-01T19:26:38.864Z,92.25
2023-01-01T19:29:14.751Z,92.68
2023-01-01T19:31:44.023Z,92.41
2023-01-01T19:34:14.000Z,93.40
2023-01-01T19:36:44.655Z,93.12
2023-01-01T19:39:15.520Z,93.20
2023-01-01T19:41:45.529Z,93.26
2023-01-01T19:44:19.908Z,93.06
2023-01-01T19:46:46.938Z,93.46
2023-01-01T19:49:17.734Z,94.01
2023-01-01T19:51:47.479Z,94.13
2023-01-01T19:54:17.226Z,94.28
2023-01-01T19:56:48.304Z,93.67
2023-01-01T19:59:18.204Z,94.70
2023-01-01T20:02:09.751Z,95.06
2023-01-01T20:04:19.654Z,95.11
2023-01-01T20:06:49.722Z,94.36
2023-01-01T20:09:19.808Z,94.17
2023-01-01T20:11:50.848Z,95.30
2023-01-01T20:14:20.593Z,96.02
2023-01-01T20:16:52.113Z,94.47
2023-01-01T20:19:21.827Z,95.39
2023-01-01T20:22:09.094Z,94.56
2023-01-01T20:24:41.333Z,94.93
2023-01-01T20:27:12.164Z,94.57
2023-01-01T20:29:42.623Z,93.34
2023-01-01T20:32:13.294Z,94.17
2023-01-01T20:34:43.677Z,95.03
2023-01-01T20:37:30.750Z,94.21
2023-01-01T20:40:00.593Z,93.56
2023-01-01T20:42:30.324Z,93.10
2023-01-01T20:45:00.409Z,93.33
2023-01-01T20:47:30.129Z,93.84
2023-01-01T20:50:00.373Z,92.81
2023-01-01T20:52:30.573Z,92.64
2023-01-01T20:55:00.642Z,92.97
2023-01-01T20:57:30.374Z,93.71
2023-01-01T21:00:00.140Z,93.62
2023-01-01T21:02:30.489Z,93.32
2023-01-01T21:05:01.505Z,93.51
2023-01-01T21:07:31.273Z,92.81
2023-01-01T21:10:01.667Z,93.24
2023-01-01T21:12:31.112Z,92.52
2023-01-01T21:15:01.798Z,92.54
2023-01-01T21:17:31.251Z,93.24
2023-01-01T21:20:01.680Z,93.21
2023-01-01T21:22:32.668Z,93.80
2023-01-01T21:25:48.651Z,94.00
2023-01-01T21:27:38.632Z,94.61
2023-01-01T21:30:11.476Z,95.08
2023-01-01T21:32:43.942Z,94.02
2023-01-01T21:35:25.868Z,93.84
2023-01-01T21:37:58.509Z,94.54
2023-01-01T21:40:58.645Z,94.02
2023-01-01T21:43:47.847Z,94.19
2023-01-01T21:46:20.683Z,94.61
2023-01-01T21:49:08.405Z,93.85
2023-01-01T21:51:47.306Z,93.85
2023-01-01T21:54:19.821Z,94.65
2023-01-01T21:57:00.784Z,94.82
2023-01-01T21:59:41.793Z,94.58
2023-01-01T22:02:14.846Z,94.82
2023-01-01T22:04:52.082Z,95.48
2023-01-01T22:10:20.476Z,95.84
2023-01-01T22:13:01.607Z,95.65
2023-01-01T22:15:40.035Z,95.65
2023-01-01T22:18:14.625Z,95.03
2023-01-01T22:20:46.469Z,95.09
2023-01-01T22:23:22.520Z,95.87
2023-01-01T22:25:52.894Z,96.08
2023-01-01T22:28:26.928Z,95.83
2023-01-01T22:31:00.062Z,95.79
2023-01-01T22:33:41.477Z,96.44
2023-01-01T22:36:14.259Z,96.44
2023-01-01T22:38:44.237Z,95.53
2023-01-01T22:41:15.607Z,94.55
2023-01-01T22:43:47.286Z,95.28
2023-01-01T22:46:32.210Z,94.78
2023-01-01T22:49:08.210Z,94.47
2023-01-01T22:51:40.689Z,95.96
2023-01-01T22:54:13.009Z,96.60
2023-01-01T22:56:42.742Z,94.69
2023-01-01T22:59:12.776Z,94.21
2023-01-01T23:01:42.610Z,93.62
2023-01-01T23:04:12.345Z,94.44
2023-01-01T23:06:42.254Z,93.56
2023-01-01T23:09:12.561Z,93.19
2023-01-01T23:11:42.418Z,93.53
2023-01-01T23:14:35.596Z,93.70
2023-01-01T23:17:03.215Z,93.28
2023-01-01T23:19:32.946Z,93.67
2023-01-01T23:22:04.269Z,93.49
2023-01-01T23:24:34.688Z,93.54
2023-01-01T23:27:05.535Z,93.86
2023-01-01T23:29:36.013Z,93.86
2023-01-01T23:32:06.376Z,93.08
2023-01-01T23:34:36.200Z,92.68
2023-01-01T23:37:06.461Z,92.30
2023-01-01T23:39:36.692Z,93.19
2023-01-01T23:42:06.533Z,92.82
2023-01-01T23:44:36.277Z,92.78
2023-01-01T23:47:06.303Z,92.09
2023-01-01T23:49:36.302Z,92.07
2023-01-01T23:52:06.036Z,91.90
2023-01-01T23:54:37.776Z,92.00
2023-01-01T23:57:07.521Z,92.07
2023-01-01T23:59:37.270Z,90.82
